Pirai do Sul, Brazil
Current Conditions -  °F | °C
As of 10:00 PM on Thursday 27 Nov 2014 (Local Time) from SBBI Reporting Station
Broken Clouds Broken Clouds  
Wind Chill: 64°   Ceiling: 700
Heat Index: 64°   Visibility: 6mi
Dew Point: 61°   Wind: 10mph
Humidity: 88%   Direction: 130°SE
Pressure: 30.03"   Gusts: NA
Location:  24.53°S, 49.95°W
Report Text: SBBI 280000Z 13009KT 9999 BKN007 BKN012 18/16 Q1017
Loading
Personal Weather Stations






























Interactive Weather Map New forecast layout! Learn more

10-Day Weather Forecast

Advertisements
Track Severe Weather on mobile